Time;durP1;ratioP1;P1;durP2;ratioP2;P2;SDS_P1;SDS_P2;PMS_P1;PMS_P2;Temp;Humidity;BMP_temperature;BMP_pressure;BME280_temperature;BME280_humidity;BME280_pressure;Samples;Min_cycle;Max_cycle;Signal;HPM_P1;HPM_P2
2022/05/26 00:01:54;;;;;;;0.03;0.03;;;;;;;14.02;57.86;101059.50;7371219;19;20018;-60
2022/05/26 00:04:20;;;;;;;0.00;0.00;;;;;;;14.01;59.45;101052.56;7370129;19;20006;-60
2022/05/26 00:06:46;;;;;;;0.00;0.00;;;;;;;14.00;59.13;101040.34;7369594;19;23899;-60
2022/05/26 00:09:11;;;;;;;0.00;0.00;;;;;;;14.00;59.37;101041.19;7371766;19;20007;-60
2022/05/26 00:11:38;;;;;;;0.00;0.00;;;;;;;13.99;59.77;101046.50;7368990;19;20010;-61
2022/05/26 00:14:09;;;;;;;0.00;0.00;;;;;;;14.00;59.65;101046.44;7370706;19;20011;-60
2022/05/26 00:16:42;;;;;;;0.00;0.00;;;;;;;13.99;59.61;101043.88;7370051;19;20750;-60
2022/05/26 00:19:08;;;;;;;0.00;0.00;;;;;;;13.99;58.34;101057.88;7368158;19;20010;-60
2022/05/26 00:21:34;;;;;;;0.00;0.00;;;;;;;14.02;59.22;101059.50;7369797;19;20033;-60
2022/05/26 00:23:59;;;;;;;0.00;0.00;;;;;;;14.01;59.24;101061.28;7368163;19;20014;-60
2022/05/26 00:26:25;;;;;;;0.00;0.00;;;;;;;14.03;59.43;101051.59;7368610;19;20096;-61
2022/05/26 00:28:50;;;;;;;0.03;0.03;;;;;;;14.03;59.29;101045.47;7369402;19;20018;-61
2022/05/26 00:31:16;;;;;;;0.00;0.00;;;;;;;13.98;59.67;101040.38;7369163;19;20029;-61
2022/05/26 00:33:42;;;;;;;0.00;0.00;;;;;;;14.07;60.01;101051.50;7369316;19;20014;-60
2022/05/26 00:36:11;;;;;;;0.00;0.00;;;;;;;14.09;59.84;101045.31;7371312;19;20702;-60
2022/05/26 00:38:38;;;;;;;0.03;0.03;;;;;;;14.01;60.17;101034.16;7369577;19;20007;-60
2022/05/26 00:41:07;;;;;;;0.00;0.00;;;;;;;14.14;59.63;101050.38;7367560;19;20011;-60
2022/05/26 00:43:32;;;;;;;0.00;0.00;;;;;;;14.12;60.11;101042.56;7368716;19;20009;-60
2022/05/26 00:46:23;;;;;;;0.00;0.00;;;;;;;14.20;58.36;101051.06;7367962;19;22060;-60
2022/05/26 00:48:58;;;;;;;0.10;0.10;;;;;;;14.20;59.15;101051.06;7367115;19;20015;-60
2022/05/26 00:51:28;;;;;;;0.10;0.10;;;;;;;14.20;60.24;101048.44;7370032;19;20725;-60
2022/05/26 00:54:00;;;;;;;0.00;0.00;;;;;;;14.25;59.43;101041.28;7369942;19;20108;-60
2022/05/26 00:56:47;;;;;;;0.00;0.00;;;;;;;14.28;59.24;101049.03;7368880;19;20011;-60
2022/05/26 00:59:25;;;;;;;0.00;0.00;;;;;;;14.30;59.21;101048.16;7366881;19;22360;-60
2022/05/26 01:01:51;;;;;;;0.00;0.00;;;;;;;14.31;59.57;101044.59;7368504;19;20034;-60
2022/05/26 01:04:19;;;;;;;0.00;0.00;;;;;;;14.30;60.34;101033.25;7369432;19;20011;-60
2022/05/26 01:07:10;;;;;;;0.00;0.00;;;;;;;14.37;58.52;101031.25;7365989;19;20014;-60
2022/05/26 01:09:35;;;;;;;0.00;0.00;;;;;;;14.38;60.08;101025.09;7267834;19;2004537;-60
2022/05/26 01:12:01;;;;;;;0.00;0.00;;;;;;;14.39;60.29;101026.81;7367929;19;20026;-60
2022/05/26 01:14:31;;;;;;;0.00;0.00;;;;;;;14.40;60.17;101008.38;7368510;19;20021;-59
2022/05/26 01:17:12;;;;;;;0.10;0.10;;;;;;;14.41;59.90;101014.50;7366720;19;20006;-60
2022/05/26 01:19:40;;;;;;;0.00;0.00;;;;;;;14.42;60.26;101010.94;7368423;19;20018;-60
2022/05/26 01:22:24;;;;;;;0.00;0.00;;;;;;;14.46;59.58;101015.19;7368843;19;20018;-59
2022/05/26 01:24:53;;;;;;;0.00;0.00;;;;;;;14.45;60.66;101008.22;7365804;19;20006;-60
2022/05/26 01:27:27;;;;;;;0.00;0.00;;;;;;;14.47;59.21;101009.03;7369240;19;20014;-60
2022/05/26 01:30:02;;;;;;;0.00;0.00;;;;;;;14.47;60.53;101002.03;7366434;19;20007;-60
2022/05/26 01:32:39;;;;;;;0.00;0.00;;;;;;;14.48;60.85;101005.50;7367056;19;20011;-60
2022/05/26 01:35:04;;;;;;;0.00;0.00;;;;;;;14.48;60.31;101002.88;7368384;19;20511;-61
2022/05/26 01:37:48;;;;;;;0.00;0.00;;;;;;;14.52;60.35;101010.63;7368408;19;20090;-60
2022/05/26 01:40:16;;;;;;;0.00;0.00;;;;;;;14.51;61.36;101005.44;7366951;19;20015;-60
2022/05/26 01:43:05;;;;;;;0.00;0.00;;;;;;;14.56;60.56;101014.00;7367406;19;20018;-60
2022/05/26 01:45:51;;;;;;;0.00;0.00;;;;;;;14.56;60.30;101003.50;7366435;19;20010;-60
2022/05/26 01:48:29;;;;;;;0.00;0.00;;;;;;;14.46;61.37;100987.16;7368436;19;20014;-60
2022/05/26 01:51:07;;;;;;;0.00;0.00;;;;;;;14.60;61.10;101004.22;7365156;19;20014;-60
2022/05/26 01:53:35;;;;;;;;;;;;;;;14.62;58.58;100999.78;7368979;19;20042;-60
2022/05/26 01:56:45;;;;;;;0.00;0.00;;;;;;;14.62;58.65;101005.91;7367188;19;19919;-60
2022/05/26 01:59:23;;;;;;;0.10;0.10;;;;;;;14.63;60.32;101015.50;7252595;19;2004241;-60
2022/05/26 02:01:59;;;;;;;0.00;0.00;;;;;;;14.62;60.55;101008.53;7365125;19;20019;-60
2022/05/26 02:04:31;;;;;;;0.00;0.00;;;;;;;14.63;60.85;101015.50;7360956;19;20014;-60
2022/05/26 02:07:18;;;;;;;0.00;0.00;;;;;;;14.65;61.19;101007.56;7366092;19;20017;-60
2022/05/26 02:09:44;;;;;;;;;;;;;;;14.67;58.29;100996.09;7365327;19;20045;-60
2022/05/26 02:12:29;;;;;;;0.00;0.00;;;;;;;14.67;60.65;101001.34;7365214;19;20532;-60
2022/05/26 02:15:01;;;;;;;0.00;0.00;;;;;;;14.68;60.66;101004.84;7364314;19;20363;-60
2022/05/26 02:17:32;;;;;;;0.00;0.00;;;;;;;14.59;61.97;100987.59;7362852;19;20099;-60
2022/05/26 02:20:24;;;;;;;0.00;0.00;;;;;;;14.69;59.74;101003.91;7364460;19;20074;-61
2022/05/26 02:23:16;;;;;;;0.00;0.00;;;;;;;14.70;60.03;101006.50;7263847;19;2004549;-60
2022/05/26 02:25:41;;;;;;;0.00;0.00;;;;;;;14.68;61.09;101000.44;7262464;19;2004593;-60
2022/05/26 02:28:09;;;;;;;0.00;0.00;;;;;;;14.68;62.24;100997.81;7363381;19;20117;-60
2022/05/26 02:30:39;;;;;;;0.00;0.00;;;;;;;14.69;61.08;100993.41;7364271;19;20014;-60
2022/05/26 02:33:08;;;;;;;0.00;0.00;;;;;;;14.70;62.56;100996.00;7362749;19;20014;-60
2022/05/26 02:35:38;;;;;;;0.00;0.00;;;;;;;14.70;62.38;100985.47;7360931;19;20090;-60
2022/05/26 02:38:14;;;;;;;0.00;0.00;;;;;;;14.65;61.43;100976.00;7361694;19;20006;-60
2022/05/26 02:40:40;;;;;;;0.00;0.00;;;;;;;14.58;62.10;100970.13;7365577;19;20021;-60
2022/05/26 02:43:28;;;;;;;0.00;0.00;;;;;;;14.70;63.52;100974.97;7359709;19;20026;-58
2022/05/26 02:46:21;;;;;;;0.00;0.00;;;;;;;14.70;61.45;100972.34;7364638;19;20132;-60
2022/05/26 02:49:02;;;;;;;0.00;0.00;;;;;;;14.66;63.58;100967.25;7262907;19;2004724;-60
2022/05/26 02:51:46;;;;;;;0.00;0.00;;;;;;;14.66;60.91;100972.50;7361345;19;20035;-60
2022/05/26 02:54:37;;;;;;;0.00;0.00;;;;;;;14.58;63.86;100975.38;7360739;19;20007;-60
2022/05/26 02:57:24;;;;;;;0.00;0.00;;;;;;;14.55;64.40;100965.00;7262073;19;2004428;-60
2022/05/26 03:00:12;;;;;;;0.00;0.00;;;;;;;14.47;62.55;100961.72;7362219;19;20034;-60
2022/05/26 03:02:59;;;;;;;0.08;0.08;;;;;;;14.40;62.09;100947.97;7362296;19;21182;-60
2022/05/26 03:06:10;;;;;;;0.00;0.00;;;;;;;14.25;62.84;100936.19;7349953;19;20094;-61
2022/05/26 03:08:39;;;;;;;0.00;0.00;;;;;;;14.19;66.15;100941.66;7261927;19;2004430;-61
2022/05/26 03:11:18;;;;;;;0.05;0.05;;;;;;;14.18;65.21;100949.56;7364307;19;20034;-60
2022/05/26 03:13:43;;;;;;;0.00;0.00;;;;;;;14.11;66.27;100954.19;7364734;19;20010;-61
2022/05/26 03:16:09;;;;;;;0.08;0.08;;;;;;;14.06;67.97;100937.72;7362400;19;20043;-61
2022/05/26 03:18:36;;;;;;;0.00;0.00;;;;;;;14.01;66.24;100929.16;7354706;19;20089;-61
2022/05/26 03:21:04;;;;;;;0.00;0.00;;;;;;;13.94;67.17;100922.38;7365525;19;20960;-60
2022/05/26 03:23:30;;;;;;;0.00;0.00;;;;;;;13.98;67.59;100926.59;7364868;19;20015;-61
2022/05/26 03:25:57;;;;;;;0.00;0.00;;;;;;;13.95;67.58;100926.72;7365536;19;20380;-61
2022/05/26 03:28:24;;;;;;;0.00;0.00;;;;;;;13.94;67.90;100922.38;7365379;19;20014;-61
2022/05/26 03:30:49;;;;;;;0.00;0.00;;;;;;;13.91;67.15;100914.59;7363292;19;20014;-60
2022/05/26 03:33:15;;;;;;;0.00;0.00;;;;;;;13.91;67.62;100919.84;7363758;19;20475;-60
2022/05/26 03:41:08;;;;;;;0.00;0.00;;;;;;;13.88;68.15;100899.78;7362594;19;20135;-60
2022/05/26 03:43:43;;;;;;;0.00;0.00;;;;;;;13.90;67.35;100907.66;7364535;19;20070;-61
2022/05/26 03:46:09;;;;;;;0.00;0.00;;;;;;;13.88;68.00;100893.69;7360690;19;20018;-60
2022/05/26 03:48:36;;;;;;;0.00;0.00;;;;;;;13.88;69.55;100898.94;7362535;19;20014;-61
2022/05/26 03:51:02;;;;;;;0.00;0.00;;;;;;;13.88;68.20;100898.94;7363553;19;20614;-60
2022/05/26 03:53:27;;;;;;;0.00;0.00;;;;;;;13.91;68.76;100904.09;7363982;19;20022;-61
2022/05/26 03:55:53;;;;;;;0.08;0.08;;;;;;;13.81;69.53;100876.44;7364176;19;20066;-60
2022/05/26 03:58:18;;;;;;;0.00;0.00;;;;;;;13.93;69.89;100897.03;7360749;19;20688;-60
2022/05/26 04:00:44;;;;;;;0.00;0.00;;;;;;;13.95;69.23;100895.22;7357508;19;20131;-61
2022/05/26 04:03:09;;;;;;;0.00;0.00;;;;;;;13.96;69.87;100892.53;7364793;19;20014;-61
2022/05/26 04:05:35;;;;;;;0.00;0.00;;;;;;;13.98;69.84;100884.59;7363468;19;20011;-61
2022/05/26 04:08:00;;;;;;;0.00;0.00;;;;;;;14.00;70.44;100880.16;7364090;19;20018;-60
2022/05/26 04:10:26;;;;;;;0.00;0.00;;;;;;;14.01;70.16;100879.25;7361596;19;20509;-61
2022/05/26 04:12:55;;;;;;;0.00;0.00;;;;;;;14.02;69.94;100878.34;7363070;19;20034;-60
2022/05/26 04:15:21;;;;;;;0.00;0.00;;;;;;;13.98;68.44;100868.84;7364856;19;20014;-61
2022/05/26 04:17:46;;;;;;;0.00;0.00;;;;;;;14.06;70.28;100879.97;7363184;19;20363;-61
2022/05/26 04:20:15;;;;;;;0.00;0.00;;;;;;;14.11;68.02;100869.28;7362288;19;20006;-61
2022/05/26 04:22:40;;;;;;;0.00;0.00;;;;;;;14.11;69.43;100885.91;7363853;19;20047;-61
2022/05/26 04:25:06;;;;;;;0.00;0.00;;;;;;;14.09;70.74;100887.75;7362206;19;20018;-61
2022/05/26 04:27:33;;;;;;;0.10;0.10;;;;;;;14.10;71.23;100873.69;7362945;19;20010;-61
2022/05/26 04:29:58;;;;;;;0.00;0.00;;;;;;;14.13;69.95;100870.94;7361250;19;20098;-60
2022/05/26 04:32:24;;;;;;;0.00;0.00;;;;;;;14.13;70.45;100860.44;7362473;19;20027;-61
2022/05/26 04:34:51;;;;;;;0.00;0.00;;;;;;;14.17;70.92;100869.06;7358998;19;20074;-61
2022/05/26 04:37:18;;;;;;;0.00;0.00;;;;;;;14.11;70.01;100858.78;7362636;19;20022;-61
2022/05/26 04:39:43;;;;;;;0.00;0.00;;;;;;;14.15;69.55;100856.00;7361408;19;20022;-61
2022/05/26 04:42:09;;;;;;;0.00;0.00;;;;;;;14.27;70.11;100870.47;7367836;19;20014;-61
2022/05/26 04:44:38;;;;;;;0.00;0.00;;;;;;;14.32;70.51;100884.28;7368206;19;20018;-61
2022/05/26 04:47:04;;;;;;;0.10;0.10;;;;;;;14.33;70.21;100870.25;7369444;19;20010;-61
2022/05/26 04:49:29;;;;;;;0.00;0.00;;;;;;;14.37;71.48;100873.63;7369981;19;20022;-61
2022/05/26 04:51:55;;;;;;;0.00;0.00;;;;;;;14.40;70.43;100881.41;7366257;19;20014;-61
2022/05/26 04:54:21;;;;;;;0.10;0.10;;;;;;;14.45;70.62;100871.59;7367303;19;20010;-61
2022/05/26 04:56:47;;;;;;;0.00;0.00;;;;;;;14.47;70.90;100880.28;7367990;19;20022;-61
2022/05/26 04:59:12;;;;;;;0.00;0.00;;;;;;;14.49;71.51;100875.84;7365826;19;20010;-61
2022/05/26 05:01:37;;;;;;;0.08;0.08;;;;;;;14.36;70.97;100861.41;7368547;19;20059;-61
2022/05/26 05:04:03;;;;;;;0.00;0.00;;;;;;;14.58;70.69;100875.50;7368033;19;20573;-61
2022/05/26 05:06:29;;;;;;;0.00;0.00;;;;;;;14.61;70.71;100888.56;7368603;19;20353;-61
2022/05/26 05:08:54;;;;;;;0.00;0.00;;;;;;;14.64;70.24;100885.78;7368125;19;20010;-61
2022/05/26 05:11:20;;;;;;;0.00;0.00;;;;;;;14.66;70.53;100886.63;7366914;19;20041;-61
2022/05/26 05:13:45;;;;;;;0.03;0.03;;;;;;;14.68;70.13;100892.66;7365198;19;20006;-60
2022/05/26 05:16:18;;;;;;;0.00;0.00;;;;;;;14.75;71.46;100894.16;7367770;19;20027;-61
2022/05/26 05:18:44;;;;;;;0.00;0.00;;;;;;;14.75;71.17;100899.44;7366946;19;20035;-61
2022/05/26 05:21:17;;;;;;;0.00;0.00;;;;;;;14.81;71.09;100894.84;7368213;19;20107;-61
2022/05/26 05:23:51;;;;;;;0.00;0.00;;;;;;;14.82;71.56;100886.03;7367003;19;20039;-61
2022/05/26 05:26:21;;;;;;;0.08;0.08;;;;;;;14.86;72.15;100898.16;7368929;19;20024;-61
2022/05/26 05:28:52;;;;;;;0.00;0.00;;;;;;;14.87;72.34;100890.22;7367231;19;21066;-61
2022/05/26 05:31:30;;;;;;;0.00;0.00;;;;;;;14.91;71.68;100898.84;7368819;19;20078;-61
2022/05/26 05:34:04;;;;;;;0.03;0.03;;;;;;;14.93;71.52;100899.66;7366447;19;20010;-61
2022/05/26 05:36:33;;;;;;;0.00;0.00;;;;;;;14.93;71.80;100894.38;7365265;19;20034;-61
2022/05/26 05:39:00;;;;;;;0.00;0.00;;;;;;;14.93;72.86;100908.38;7367214;19;20039;-61
2022/05/26 05:41:27;;;;;;;0.03;0.03;;;;;;;14.94;71.41;100906.63;7367842;19;20014;-61
2022/05/26 05:43:54;;;;;;;0.00;0.00;;;;;;;14.95;72.26;100905.69;7368429;19;20449;-61
2022/05/26 05:46:20;;;;;;;0.03;0.03;;;;;;;14.96;71.89;100903.03;7364970;19;20051;-61
2022/05/26 05:48:46;;;;;;;0.00;0.00;;;;;;;14.98;72.24;100910.84;7368000;19;20018;-61
2022/05/26 05:51:13;;;;;;;0.00;0.00;;;;;;;14.98;72.64;100910.84;7366473;19;20021;-61
2022/05/26 05:53:38;;;;;;;0.00;0.00;;;;;;;14.99;72.42;100918.66;7367849;19;20809;-62
2022/05/26 05:56:04;;;;;;;0.00;0.00;;;;;;;14.99;72.66;100916.03;7365213;19;20097;-61
2022/05/26 05:58:29;;;;;;;0.05;0.05;;;;;;;15.02;72.54;100915.09;7361204;19;20462;-62
2022/05/26 06:00:55;;;;;;;0.00;0.00;;;;;;;15.05;72.54;100922.84;7364448;19;20685;-62
2022/05/26 06:03:21;;;;;;;0.00;0.00;;;;;;;15.03;72.57;100924.69;7364843;19;20014;-62
2022/05/26 06:05:47;;;;;;;0.00;0.00;;;;;;;15.03;72.42;100916.78;7362334;19;20035;-62
2022/05/26 06:08:12;;;;;;;0.00;0.00;;;;;;;15.09;72.21;100937.59;7363786;19;20010;-61
2022/05/26 06:10:38;;;;;;;0.00;0.00;;;;;;;15.10;72.96;100926.16;7363025;19;20011;-62
2022/05/26 06:13:03;;;;;;;0.00;0.00;;;;;;;15.12;72.85;100934.88;7366468;19;20013;-62
2022/05/26 06:15:29;;;;;;;0.00;0.00;;;;;;;15.14;72.52;100933.03;7364622;19;20551;-62
2022/05/26 06:17:56;;;;;;;0.00;0.00;;;;;;;15.18;72.78;100931.13;7366719;19;20010;-62
2022/05/26 06:20:22;;;;;;;0.00;0.00;;;;;;;15.20;72.43;100927.50;7363095;19;20070;-62
2022/05/26 06:22:47;;;;;;;0.00;0.00;;;;;;;15.24;73.57;100923.84;7360159;19;20441;-62
2022/05/26 06:25:15;;;;;;;0.00;0.00;;;;;;;15.28;73.23;100924.59;7363592;19;20014;-62
2022/05/26 06:30:32;;;;;;;0.08;0.08;;;;;;;15.36;73.66;100934.81;7367492;19;20023;-62
2022/05/26 06:38:46;;;;;;;0.00;0.00;;;;;;;15.44;72.42;100938.03;7361876;19;20017;-62
2022/05/26 06:43:59;;;;;;;0.00;0.00;;;;;;;15.51;73.02;100950.00;7262842;19;2004528;-62
2022/05/26 06:46:25;;;;;;;0.10;0.10;;;;;;;15.46;72.64;100933.53;7361535;19;20015;-62
2022/05/26 06:48:50;;;;;;;0.00;0.00;;;;;;;15.58;73.46;100938.34;7364274;19;20013;-62
2022/05/26 06:51:16;;;;;;;0.00;0.00;;;;;;;15.62;73.20;100945.22;7365192;19;20010;-62
2022/05/26 06:53:41;;;;;;;0.00;0.00;;;;;;;15.64;73.78;100953.06;7362878;19;20014;-62
2022/05/26 06:56:07;;;;;;;0.00;0.00;;;;;;;15.66;73.56;100949.47;7364367;19;20038;-62
2022/05/26 06:58:33;;;;;;;0.00;0.00;;;;;;;15.69;73.44;100961.63;7364034;19;20006;-62
2022/05/26 07:00:58;;;;;;;0.10;0.10;;;;;;;15.71;73.32;100954.53;7360597;19;21161;-62
2022/05/26 07:03:24;;;;;;;0.00;0.00;;;;;;;15.74;73.72;100949.16;7362982;19;20021;-62
2022/05/26 07:05:50;;;;;;;0.00;0.00;;;;;;;15.76;73.83;100949.94;7362960;19;20017;-62
2022/05/26 07:08:16;;;;;;;0.00;0.00;;;;;;;15.79;74.35;100953.31;7365107;19;20020;-62
2022/05/26 07:10:42;;;;;;;0.10;0.10;;;;;;;15.85;72.81;100953.97;7361932;19;20015;-62
2022/05/26 07:13:08;;;;;;;0.03;0.03;;;;;;;15.89;73.46;100955.56;7364686;19;20029;-62
2022/05/26 07:15:33;;;;;;;0.08;0.08;;;;;;;15.95;72.58;100952.69;7362357;19;20014;-62
2022/05/26 07:17:59;;;;;;;0.00;0.00;;;;;;;15.98;73.26;100953.44;7363371;19;20027;-62
2022/05/26 07:20:24;;;;;;;0.00;0.00;;;;;;;16.02;73.17;100956.81;7362104;19;20459;-62
2022/05/26 07:22:50;;;;;;;0.00;0.00;;;;;;;16.07;72.91;100962.75;7364768;19;20019;-62
2022/05/26 07:25:15;;;;;;;0.00;0.00;;;;;;;16.07;73.64;100960.09;7359731;19;20018;-62
2022/05/26 07:27:42;;;;;;;0.00;0.00;;;;;;;16.12;73.01;100976.56;7360276;19;20026;-62
2022/05/26 07:30:10;;;;;;;0.00;0.00;;;;;;;16.16;73.16;100972.88;7359354;19;20014;-61
2022/05/26 07:32:35;;;;;;;0.00;0.00;;;;;;;16.18;73.09;100978.94;7364866;19;20010;-62
2022/05/26 07:35:01;;;;;;;0.00;0.00;;;;;;;16.22;72.82;100982.28;7361547;19;20014;-61
2022/05/26 07:42:56;;;;;;;0.00;0.00;;;;;;;16.32;73.05;101005.59;7363406;19;20580;-62
2022/05/26 07:45:22;;;;;;;0.05;0.05;;;;;;;16.37;73.54;100991.34;7356007;19;20049;-61
2022/05/26 07:47:48;;;;;;;0.10;0.10;;;;;;;16.38;73.60;100995.72;7357565;19;20042;-61
2022/05/26 07:50:23;;;;;;;0.00;0.00;;;;;;;16.42;73.49;100994.63;7360205;19;20011;-61
2022/05/26 07:52:50;;;;;;;0.10;0.10;;;;;;;16.44;73.55;101003.34;7362918;19;20702;-61
2022/05/26 07:55:18;;;;;;;0.10;0.10;;;;;;;16.43;73.24;100997.22;7357867;19;20026;-61
2022/05/26 07:57:44;;;;;;;0.00;0.00;;;;;;;16.47;73.13;100997.94;7360313;19;20411;-62
2022/05/26 08:00:11;;;;;;;0.00;0.00;;;;;;;16.50;73.10;101001.31;7359556;19;20014;-61
2022/05/26 08:02:36;;;;;;;0.00;0.00;;;;;;;16.50;73.70;101003.94;7362377;19;20473;-62
2022/05/26 08:05:03;;;;;;;0.00;0.00;;;;;;;16.44;72.97;100987.53;7357423;19;20006;-62
2022/05/26 08:07:28;;;;;;;0.00;0.00;;;;;;;16.51;72.62;101008.28;7359947;19;20011;-62
2022/05/26 08:09:53;;;;;;;0.00;0.00;;;;;;;16.51;73.31;101010.06;7355417;19;20033;-62
2022/05/26 08:12:19;;;;;;;0.00;0.00;;;;;;;16.47;72.98;100997.94;7361334;19;20026;-62
2022/05/26 08:14:44;;;;;;;0.03;0.03;;;;;;;16.53;72.92;101018.78;7361300;19;20025;-61
2022/05/26 08:17:15;;;;;;;0.00;0.00;;;;;;;16.58;73.01;101022.09;7366857;19;20344;-62
2022/05/26 08:19:41;;;;;;;0.00;0.00;;;;;;;16.55;72.95;101016.94;7367731;19;20109;-61
2022/05/26 08:22:07;;;;;;;0.10;0.10;;;;;;;16.58;72.88;101016.81;7359006;19;20098;-62
2022/05/26 08:24:32;;;;;;;0.00;0.00;;;;;;;16.59;73.83;101026.44;7355133;19;20015;-61
2022/05/26 08:26:58;;;;;;;0.00;0.00;;;;;;;16.60;73.68;101033.41;7369246;19;20474;-61
2022/05/26 08:29:24;;;;;;;0.03;0.03;;;;;;;16.63;73.46;101050.91;7368294;19;20017;-62
2022/05/26 08:31:50;;;;;;;0.00;0.00;;;;;;;16.66;73.38;101034.94;7369936;19;20014;-62
2022/05/26 08:34:17;;;;;;;0.00;0.00;;;;;;;16.66;73.52;101034.94;7369746;19;20021;-61
2022/05/26 08:36:42;;;;;;;0.10;0.10;;;;;;;16.69;73.21;101050.63;7368247;19;20039;-61
2022/05/26 08:39:08;;;;;;;0.00;0.00;;;;;;;16.70;73.10;101052.34;7367426;19;20010;-61
2022/05/26 08:41:44;;;;;;;0.00;0.00;;;;;;;16.73;72.99;101042.56;7367244;19;20034;-61
2022/05/26 08:44:14;;;;;;;0.00;0.00;;;;;;;16.74;73.22;101038.16;7366993;19;20010;-62
2022/05/26 08:46:55;;;;;;;0.00;0.00;;;;;;;16.76;72.86;101037.13;7367731;19;20002;-62
2022/05/26 08:49:34;;;;;;;0.00;0.00;;;;;;;16.76;73.57;101045.06;7367695;19;20046;-62
2022/05/26 08:52:13;;;;;;;0.00;0.00;;;;;;;16.78;73.54;101045.88;7367246;19;20007;-62
2022/05/26 08:55:03;;;;;;;0.00;0.00;;;;;;;16.85;73.40;101044.66;7364563;19;20006;-62
2022/05/26 08:57:40;;;;;;;0.00;0.00;;;;;;;16.89;74.38;101036.63;7261817;19;2004594;-62
2022/05/26 09:00:11;;;;;;;0.00;0.00;;;;;;;17.05;74.23;101059.63;7364086;19;20478;-62
2022/05/26 09:02:38;;;;;;;0.00;0.00;;;;;;;17.11;74.53;101040.03;7362144;19;20019;-62
2022/05/26 09:05:13;;;;;;;0.00;0.00;;;;;;;17.35;74.26;101062.69;7361981;19;20094;-62
2022/05/26 09:13:27;;;;;;;0.00;0.00;;;;;;;17.89;73.12;101069.03;7360791;19;20861;-62
2022/05/26 09:15:53;;;;;;;0.05;0.05;;;;;;;18.03;72.75;101076.28;7356579;19;20019;-62
2022/05/26 09:18:21;;;;;;;0.00;0.00;;;;;;;18.16;71.96;101060.72;7362355;19;20491;-62
2022/05/26 09:20:49;;;;;;;0.00;0.00;;;;;;;18.21;71.68;101064.00;7359355;19;20014;-62
2022/05/26 09:23:14;;;;;;;0.00;0.00;;;;;;;18.20;71.64;101067.56;7366837;19;20033;-63
2022/05/26 09:25:47;;;;;;;0.00;0.00;;;;;;;18.20;71.64;101078.13;7365775;19;20011;-64
2022/05/26 09:28:26;;;;;;;0.00;0.00;;;;;;;18.19;70.92;101076.41;7363294;19;20888;-63
2022/05/26 09:30:52;;;;;;;0.00;0.00;;;;;;;18.09;71.05;101068.06;7362187;19;20010;-62
2022/05/26 09:33:26;;;;;;;0.10;0.10;;;;;;;18.00;70.83;101072.94;7365283;19;21220;-63
2022/05/26 09:35:51;;;;;;;0.00;0.00;;;;;;;17.86;71.62;101085.03;7362956;19;20006;-62
2022/05/26 09:38:19;;;;;;;0.00;0.00;;;;;;;17.76;71.39;101088.16;7362588;19;20026;-62
2022/05/26 09:40:46;;;;;;;0.10;0.10;;;;;;;17.60;71.77;101086.19;7362653;19;20462;-62
2022/05/26 09:43:17;;;;;;;0.10;0.10;;;;;;;17.50;71.97;101086.69;7359959;19;20026;-61
2022/05/26 09:45:55;;;;;;;0.00;0.00;;;;;;;17.36;71.75;101092.59;7362742;19;20465;-61
2022/05/26 09:48:30;;;;;;;0.03;0.03;;;;;;;17.26;72.70;101093.91;7361721;19;20051;-61
2022/05/26 09:51:21;;;;;;;0.00;0.00;;;;;;;17.18;72.58;101083.69;7364878;19;20014;-62
2022/05/26 09:53:50;;;;;;;0.10;0.10;;;;;;;17.10;74.13;101089.31;7264259;19;2004687;-61
2022/05/26 09:56:45;;;;;;;0.00;0.00;;;;;;;17.19;73.62;101088.06;7367326;19;20023;-61
2022/05/26 09:59:28;;;;;;;0.00;0.00;;;;;;;17.36;74.36;101098.72;7264811;19;2004419;-61
2022/05/26 10:02:09;;;;;;;0.03;0.03;;;;;;;17.58;75.33;101093.31;7361851;19;20002;-61
2022/05/26 10:05:12;;;;;;;0.00;0.00;;;;;;;17.86;74.94;101102.66;7361460;19;20003;-61
2022/05/26 10:08:08;;;;;;;0.00;0.00;;;;;;;18.14;74.28;101104.84;7260396;19;2004570;-60
2022/05/26 10:10:41;;;;;;;0.00;0.00;;;;;;;18.25;73.82;101092.00;7259389;19;2004576;-61
2022/05/26 10:13:27;;;;;;;0.00;0.00;;;;;;;18.51;73.07;101109.22;7362640;19;20090;-61
2022/05/26 10:16:14;;;;;;;0.00;0.00;;;;;;;18.65;72.43;101112.06;7361263;19;20018;-61
2022/05/26 10:18:55;;;;;;;0.10;0.10;;;;;;;18.79;72.53;101115.81;7359969;19;20014;-61
2022/05/26 10:21:50;;;;;;;0.00;0.00;;;;;;;18.98;72.12;101126.31;7363683;19;20010;-61
2022/05/26 10:24:43;;;;;;;0.00;0.00;;;;;;;19.10;71.61;101109.81;7261125;19;2004433;-61
2022/05/26 10:27:26;;;;;;;0.00;0.00;;;;;;;19.23;71.62;101126.78;7260106;19;2004696;-61
2022/05/26 10:30:10;;;;;;;0.00;0.00;;;;;;;19.32;70.60;101128.94;7365638;19;20010;-61
2022/05/26 10:33:00;;;;;;;0.00;0.00;;;;;;;19.37;70.33;101126.91;7366113;19;20011;-62
2022/05/26 10:35:48;;;;;;;0.00;0.00;;;;;;;19.39;70.04;101137.41;7363464;19;20002;-61
2022/05/26 10:38:35;;;;;;;0.00;0.00;;;;;;;19.37;69.61;101137.50;7353354;19;20011;-61
2022/05/26 10:41:12;;;;;;;0.00;0.00;;;;;;;19.34;69.58;101136.81;7359659;19;20010;-61
2022/05/26 10:43:43;;;;;;;0.10;0.10;;;;;;;19.26;69.93;101134.56;7354969;19;20006;-60
2022/05/26 10:46:09;;;;;;;0.00;0.00;;;;;;;19.13;69.30;101136.13;7356291;19;20017;-61
2022/05/26 10:48:53;;;;;;;0.00;0.00;;;;;;;19.09;68.95;101148.66;7357998;19;21721;-61
2022/05/26 10:51:24;;;;;;;0.08;0.08;;;;;;;18.90;69.79;101138.13;7361300;19;20006;-61
2022/05/26 10:53:58;;;;;;;0.10;0.10;;;;;;;18.92;69.20;101146.88;7357456;19;20007;-61
2022/05/26 10:56:48;;;;;;;0.00;0.00;;;;;;;18.88;69.44;101147.97;7355642;19;20007;-61
2022/05/26 10:59:22;;;;;;;0.00;0.00;;;;;;;18.85;69.05;101157.84;7360609;19;20030;-62
2022/05/26 11:02:02;;;;;;;0.10;0.10;;;;;;;18.84;69.26;101158.78;7360739;19;20024;-60
2022/05/26 11:05:05;;;;;;;0.00;0.00;;;;;;;18.85;68.69;101171.91;7364057;19;20049;-61
2022/05/26 11:07:44;;;;;;;0.10;0.10;;;;;;;18.80;68.79;101167.78;7264792;19;2004359;-60
2022/05/26 11:10:23;;;;;;;0.00;0.00;;;;;;;18.78;68.93;101170.53;7362151;19;20035;-61
2022/05/26 11:12:57;;;;;;;0.00;0.00;;;;;;;18.79;69.34;101177.53;7365625;19;20983;-62
2022/05/26 11:18:33;;;;;;;0.00;0.00;;;;;;;18.88;68.60;101182.34;7363291;19;20052;-61
2022/05/26 11:20:58;;;;;;;0.00;0.00;;;;;;;18.86;69.22;101181.59;7260476;19;2004341;-61
2022/05/26 11:23:28;;;;;;;0.00;0.00;;;;;;;18.97;69.20;101181.06;7362718;19;20039;-60
2022/05/26 11:26:07;;;;;;;0.03;0.03;;;;;;;19.06;69.61;101180.59;7362284;19;20027;-61
2022/05/26 11:28:44;;;;;;;0.00;0.00;;;;;;;19.14;68.67;101177.56;7353530;19;20510;-62
2022/05/26 11:37:23;;;;;;;0.00;0.00;;;;;;;19.38;67.80;101171.00;7254751;19;2004534;-61
2022/05/26 11:39:53;;;;;;;0.00;0.00;;;;;;;19.35;68.76;101149.97;7358460;19;20015;-61
2022/05/26 11:42:35;;;;;;;0.10;0.10;;;;;;;19.59;68.12;101184.06;7363725;19;20029;-60
2022/05/26 11:45:18;;;;;;;0.00;0.00;;;;;;;19.80;67.98;101177.66;7362864;19;20650;-61
2022/05/26 11:47:54;;;;;;;0.10;0.10;;;;;;;19.99;68.17;101182.81;7364028;19;20096;-61
2022/05/26 11:50:38;;;;;;;0.00;0.00;;;;;;;20.18;67.40;101186.19;7364523;19;20994;-62
2022/05/26 11:53:10;;;;;;;0.03;0.03;;;;;;;20.50;66.03;101190.66;7370278;19;20090;-62
2022/05/26 11:55:51;;;;;;;0.00;0.00;;;;;;;20.73;66.11;101182.22;7369889;19;20021;-62
2022/05/26 11:58:35;;;;;;;0.00;0.00;;;;;;;20.91;65.60;101194.44;7371398;19;20481;-61
2022/05/26 12:01:22;;;;;;;0.00;0.00;;;;;;;21.07;65.06;101198.88;7369632;19;20479;-61
2022/05/26 12:03:54;;;;;;;0.10;0.10;;;;;;;21.11;64.38;101200.41;7368172;19;20017;-62
2022/05/26 12:06:37;;;;;;;0.10;0.10;;;;;;;21.13;64.13;101209.13;7370159;19;20006;-62
2022/05/26 12:09:05;;;;;;;0.00;0.00;;;;;;;21.04;62.32;101225.63;7369931;19;20835;-62
2022/05/26 12:11:58;;;;;;;0.10;0.10;;;;;;;21.05;63.28;101222.88;7370172;19;20039;-62
2022/05/26 12:14:44;;;;;;;0.00;0.00;;;;;;;21.10;63.94;101219.94;7370893;19;20022;-62
2022/05/26 12:17:34;;;;;;;0.00;0.00;;;;;;;21.17;63.88;101221.28;7368183;19;20093;-62
2022/05/26 12:20:10;;;;;;;0.00;0.00;;;;;;;21.23;62.70;101231.53;7369933;19;20073;-62
2022/05/26 12:22:41;;;;;;;0.00;0.00;;;;;;;21.35;61.92;101209.63;7367593;19;20031;-62
2022/05/26 12:25:30;;;;;;;0.00;0.00;;;;;;;21.63;63.03;101229.22;7369812;19;20026;-62